sensor_id;sensor_type;location;lat;lon;timestamp;P1;durP1;ratioP1;P2;durP2;ratioP2
63089;SDS011;49174;43.198;27.824;2022-12-18T03:34:50;2.97;;;2.13;;
63089;SDS011;49174;43.198;27.824;2022-12-18T03:37:17;3.47;;;2.22;;
63089;SDS011;49174;43.198;27.824;2022-12-18T03:39:42;4.05;;;2.55;;
63089;SDS011;49174;43.198;27.824;2022-12-18T03:42:15;3.55;;;2.30;;
63089;SDS011;49174;43.198;27.824;2022-12-18T04:03:44;9.75;;;3.85;;
63089;SDS011;49174;43.198;27.824;2022-12-18T04:57:45;6.53;;;4.00;;
63089;SDS011;49174;43.198;27.824;2022-12-18T05:08:38;8.70;;;4.40;;
63089;SDS011;49174;43.198;27.824;2022-12-18T05:11:05;7.88;;;5.47;;
63089;SDS011;49174;43.198;27.824;2022-12-18T05:13:34;8.27;;;5.10;;
63089;SDS011;49174;43.198;27.824;2022-12-18T05:16:01;8.10;;;5.10;;
63089;SDS011;49174;43.198;27.824;2022-12-18T05:26:33;8.80;;;4.97;;
63089;SDS011;49174;43.198;27.824;2022-12-18T05:28:59;8.52;;;5.53;;
63089;SDS011;49174;43.198;27.824;2022-12-18T05:31:25;9.02;;;5.45;;
63089;SDS011;49174;43.198;27.824;2022-12-18T05:33:51;9.93;;;6.45;;
63089;SDS011;49174;43.198;27.824;2022-12-18T05:36:17;12.35;;;6.40;;
63089;SDS011;49174;43.198;27.824;2022-12-18T05:49:27;12.52;;;8.95;;
63089;SDS011;49174;43.198;27.824;2022-12-18T05:54:43;14.40;;;8.95;;
63089;SDS011;49174;43.198;27.824;2022-12-18T05:57:34;12.75;;;8.70;;
63089;SDS011;49174;43.198;27.824;2022-12-18T06:00:13;12.45;;;9.27;;
63089;SDS011;49174;43.198;27.824;2022-12-18T06:02:42;11.82;;;8.80;;
63089;SDS011;49174;43.198;27.824;2022-12-18T06:09:15;12.50;;;9.38;;
63089;SDS011;49174;43.198;27.824;2022-12-18T06:11:46;12.13;;;8.93;;
63089;SDS011;49174;43.198;27.824;2022-12-18T06:25:30;17.05;;;10.95;;
63089;SDS011;49174;43.198;27.824;2022-12-18T06:27:56;32.80;;;19.33;;
63089;SDS011;49174;43.198;27.824;2022-12-18T06:30:22;20.08;;;11.65;;
63089;SDS011;49174;43.198;27.824;2022-12-18T06:32:48;13.68;;;8.65;;
63089;SDS011;49174;43.198;27.824;2022-12-18T06:35:15;16.10;;;8.90;;
63089;SDS011;49174;43.198;27.824;2022-12-18T06:37:40;18.40;;;11.10;;
63089;SDS011;49174;43.198;27.824;2022-12-18T06:40:06;15.52;;;8.32;;
63089;SDS011;49174;43.198;27.824;2022-12-18T06:42:36;12.93;;;7.22;;
63089;SDS011;49174;43.198;27.824;2022-12-18T06:45:01;12.35;;;7.28;;
63089;SDS011;49174;43.198;27.824;2022-12-18T06:47:27;13.38;;;7.47;;
63089;SDS011;49174;43.198;27.824;2022-12-18T06:49:53;16.60;;;9.23;;
63089;SDS011;49174;43.198;27.824;2022-12-18T06:52:18;18.70;;;11.18;;
63089;SDS011;49174;43.198;27.824;2022-12-18T06:54:44;15.07;;;8.20;;
63089;SDS011;49174;43.198;27.824;2022-12-18T06:57:10;15.57;;;9.15;;
63089;SDS011;49174;43.198;27.824;2022-12-18T06:59:35;15.25;;;9.13;;
63089;SDS011;49174;43.198;27.824;2022-12-18T07:02:01;16.60;;;10.05;;
63089;SDS011;49174;43.198;27.824;2022-12-18T07:04:27;13.27;;;8.57;;
63089;SDS011;49174;43.198;27.824;2022-12-18T07:06:55;14.50;;;8.32;;
63089;SDS011;49174;43.198;27.824;2022-12-18T07:09:21;15.98;;;9.30;;
63089;SDS011;49174;43.198;27.824;2022-12-18T07:11:46;17.10;;;10.05;;
63089;SDS011;49174;43.198;27.824;2022-12-18T07:14:12;16.98;;;10.43;;
63089;SDS011;49174;43.198;27.824;2022-12-18T07:16:37;18.25;;;10.70;;
63089;SDS011;49174;43.198;27.824;2022-12-18T07:19:03;16.90;;;10.65;;
63089;SDS011;49174;43.198;27.824;2022-12-18T07:21:29;18.88;;;12.15;;
63089;SDS011;49174;43.198;27.824;2022-12-18T07:23:57;19.08;;;11.68;;
63089;SDS011;49174;43.198;27.824;2022-12-18T07:26:22;17.70;;;10.73;;
63089;SDS011;49174;43.198;27.824;2022-12-18T07:28:48;19.60;;;12.07;;
63089;SDS011;49174;43.198;27.824;2022-12-18T07:31:16;19.10;;;11.88;;
63089;SDS011;49174;43.198;27.824;2022-12-18T07:33:43;17.90;;;11.60;;
63089;SDS011;49174;43.198;27.824;2022-12-18T07:36:10;19.25;;;11.68;;
63089;SDS011;49174;43.198;27.824;2022-12-18T07:38:36;18.50;;;11.98;;
63089;SDS011;49174;43.198;27.824;2022-12-18T07:41:03;18.88;;;11.65;;
63089;SDS011;49174;43.198;27.824;2022-12-18T07:43:31;19.33;;;10.63;;
63089;SDS011;49174;43.198;27.824;2022-12-18T07:45:56;17.88;;;11.32;;
63089;SDS011;49174;43.198;27.824;2022-12-18T07:48:23;17.55;;;10.73;;
63089;SDS011;49174;43.198;27.824;2022-12-18T07:50:48;21.98;;;12.07;;
63089;SDS011;49174;43.198;27.824;2022-12-18T07:53:14;17.48;;;10.48;;
63089;SDS011;49174;43.198;27.824;2022-12-18T07:55:40;19.15;;;9.93;;
63089;SDS011;49174;43.198;27.824;2022-12-18T07:58:06;21.10;;;11.75;;
63089;SDS011;49174;43.198;27.824;2022-12-18T08:00:32;22.08;;;12.23;;
63089;SDS011;49174;43.198;27.824;2022-12-18T08:02:58;21.10;;;12.00;;
63089;SDS011;49174;43.198;27.824;2022-12-18T08:05:23;21.60;;;11.30;;
63089;SDS011;49174;43.198;27.824;2022-12-18T08:07:49;22.48;;;12.90;;
63089;SDS011;49174;43.198;27.824;2022-12-18T08:10:15;21.27;;;11.52;;
63089;SDS011;49174;43.198;27.824;2022-12-18T08:12:40;20.40;;;12.93;;
63089;SDS011;49174;43.198;27.824;2022-12-18T08:15:06;21.13;;;11.77;;
63089;SDS011;49174;43.198;27.824;2022-12-18T08:17:32;17.73;;;10.82;;
63089;SDS011;49174;43.198;27.824;2022-12-18T08:19:58;19.73;;;11.95;;
63089;SDS011;49174;43.198;27.824;2022-12-18T08:22:23;20.83;;;11.43;;
63089;SDS011;49174;43.198;27.824;2022-12-18T08:24:49;23.80;;;12.88;;
63089;SDS011;49174;43.198;27.824;2022-12-18T08:27:14;22.45;;;13.15;;
63089;SDS011;49174;43.198;27.824;2022-12-18T08:29:40;24.42;;;13.70;;
63089;SDS011;49174;43.198;27.824;2022-12-18T08:32:05;24.95;;;13.48;;
63089;SDS011;49174;43.198;27.824;2022-12-18T08:34:31;25.70;;;12.88;;
63089;SDS011;49174;43.198;27.824;2022-12-18T08:36:57;21.00;;;12.13;;
63089;SDS011;49174;43.198;27.824;2022-12-18T08:39:22;22.33;;;12.60;;
63089;SDS011;49174;43.198;27.824;2022-12-18T08:41:49;23.13;;;13.15;;
63089;SDS011;49174;43.198;27.824;2022-12-18T08:44:33;27.42;;;14.05;;
63089;SDS011;49174;43.198;27.824;2022-12-18T08:47:05;21.45;;;12.90;;
63089;SDS011;49174;43.198;27.824;2022-12-18T08:49:32;24.20;;;17.23;;
63089;SDS011;49174;43.198;27.824;2022-12-18T08:51:58;27.00;;;16.10;;
63089;SDS011;49174;43.198;27.824;2022-12-18T08:54:24;26.77;;;17.88;;
63089;SDS011;49174;43.198;27.824;2022-12-18T08:56:50;24.10;;;16.58;;
63089;SDS011;49174;43.198;27.824;2022-12-18T08:59:16;25.38;;;16.70;;
63089;SDS011;49174;43.198;27.824;2022-12-18T09:01:42;25.48;;;16.70;;
63089;SDS011;49174;43.198;27.824;2022-12-18T09:04:08;25.50;;;15.80;;
63089;SDS011;49174;43.198;27.824;2022-12-18T09:06:34;28.45;;;16.75;;
63089;SDS011;49174;43.198;27.824;2022-12-18T09:09:00;24.50;;;16.05;;
63089;SDS011;49174;43.198;27.824;2022-12-18T09:11:27;24.00;;;15.02;;
63089;SDS011;49174;43.198;27.824;2022-12-18T09:13:54;26.00;;;16.00;;
63089;SDS011;49174;43.198;27.824;2022-12-18T09:16:21;24.58;;;14.48;;
63089;SDS011;49174;43.198;27.824;2022-12-18T09:18:47;26.02;;;16.33;;
63089;SDS011;49174;43.198;27.824;2022-12-18T09:21:13;28.17;;;17.98;;
63089;SDS011;49174;43.198;27.824;2022-12-18T09:23:43;28.13;;;16.38;;
63089;SDS011;49174;43.198;27.824;2022-12-18T09:26:09;26.98;;;15.52;;
63089;SDS011;49174;43.198;27.824;2022-12-18T09:28:35;24.95;;;15.52;;
63089;SDS011;49174;43.198;27.824;2022-12-18T09:31:05;27.13;;;17.08;;
63089;SDS011;49174;43.198;27.824;2022-12-18T09:33:33;24.05;;;14.98;;
63089;SDS011;49174;43.198;27.824;2022-12-18T09:36:00;21.48;;;12.98;;
63089;SDS011;49174;43.198;27.824;2022-12-18T09:38:27;26.25;;;15.52;;
63089;SDS011;49174;43.198;27.824;2022-12-18T09:40:53;26.23;;;14.20;;
63089;SDS011;49174;43.198;27.824;2022-12-18T09:43:45;25.05;;;14.35;;
63089;SDS011;49174;43.198;27.824;2022-12-18T09:46:16;22.10;;;13.48;;
63089;SDS011;49174;43.198;27.824;2022-12-18T09:48:48;22.48;;;12.98;;
63089;SDS011;49174;43.198;27.824;2022-12-18T09:51:19;25.08;;;14.00;;
63089;SDS011;49174;43.198;27.824;2022-12-18T09:53:51;24.73;;;14.38;;
63089;SDS011;49174;43.198;27.824;2022-12-18T09:56:21;22.23;;;12.40;;
63089;SDS011;49174;43.198;27.824;2022-12-18T10:01:24;22.23;;;12.82;;
63089;SDS011;49174;43.198;27.824;2022-12-18T10:03:51;26.13;;;13.57;;
63089;SDS011;49174;43.198;27.824;2022-12-18T10:06:23;22.02;;;12.35;;
63089;SDS011;49174;43.198;27.824;2022-12-18T10:09:14;20.27;;;12.25;;
63089;SDS011;49174;43.198;27.824;2022-12-18T10:19:28;21.20;;;10.98;;
63089;SDS011;49174;43.198;27.824;2022-12-18T10:25:03;20.35;;;10.57;;
63089;SDS011;49174;43.198;27.824;2022-12-18T10:27:44;21.63;;;10.77;;
63089;SDS011;49174;43.198;27.824;2022-12-18T10:30:15;22.60;;;11.75;;
63089;SDS011;49174;43.198;27.824;2022-12-18T10:32:42;18.23;;;9.80;;
63089;SDS011;49174;43.198;27.824;2022-12-18T10:35:11;28.27;;;13.02;;
63089;SDS011;49174;43.198;27.824;2022-12-18T10:40:57;18.08;;;10.45;;
63089;SDS011;49174;43.198;27.824;2022-12-18T10:43:34;18.30;;;10.13;;
63089;SDS011;49174;43.198;27.824;2022-12-18T10:48:34;19.63;;;11.93;;
63089;SDS011;49174;43.198;27.824;2022-12-18T10:51:05;19.48;;;10.55;;
63089;SDS011;49174;43.198;27.824;2022-12-18T10:53:32;21.13;;;10.80;;
63089;SDS011;49174;43.198;27.824;2022-12-18T10:56:00;27.52;;;11.88;;
63089;SDS011;49174;43.198;27.824;2022-12-18T10:58:31;19.92;;;9.98;;
63089;SDS011;49174;43.198;27.824;2022-12-18T11:01:09;22.63;;;11.77;;
63089;SDS011;49174;43.198;27.824;2022-12-18T11:03:43;21.17;;;11.23;;
63089;SDS011;49174;43.198;27.824;2022-12-18T11:08:36;18.25;;;10.10;;
63089;SDS011;49174;43.198;27.824;2022-12-18T11:11:03;16.08;;;9.57;;
63089;SDS011;49174;43.198;27.824;2022-12-18T11:13:32;20.60;;;10.07;;
63089;SDS011;49174;43.198;27.824;2022-12-18T11:15:58;17.63;;;10.43;;
63089;SDS011;49174;43.198;27.824;2022-12-18T11:18:28;22.33;;;11.88;;
63089;SDS011;49174;43.198;27.824;2022-12-18T11:20:58;20.83;;;10.48;;
63089;SDS011;49174;43.198;27.824;2022-12-18T11:23:30;19.08;;;10.60;;
63089;SDS011;49174;43.198;27.824;2022-12-18T11:25:59;20.30;;;11.02;;
63089;SDS011;49174;43.198;27.824;2022-12-18T11:33:57;24.20;;;12.07;;
63089;SDS011;49174;43.198;27.824;2022-12-18T11:36:24;23.77;;;12.90;;
63089;SDS011;49174;43.198;27.824;2022-12-18T11:38:53;25.55;;;13.68;;
63089;SDS011;49174;43.198;27.824;2022-12-18T11:41:34;25.10;;;13.35;;
63089;SDS011;49174;43.198;27.824;2022-12-18T11:44:29;25.63;;;13.23;;
63089;SDS011;49174;43.198;27.824;2022-12-18T11:47:03;24.13;;;14.02;;
63089;SDS011;49174;43.198;27.824;2022-12-18T11:49:38;25.80;;;15.02;;
63089;SDS011;49174;43.198;27.824;2022-12-18T11:52:15;29.05;;;16.23;;
63089;SDS011;49174;43.198;27.824;2022-12-18T11:54:44;28.38;;;15.80;;
63089;SDS011;49174;43.198;27.824;2022-12-18T12:02:46;32.15;;;19.08;;
63089;SDS011;49174;43.198;27.824;2022-12-18T12:11:01;35.92;;;20.88;;
63089;SDS011;49174;43.198;27.824;2022-12-18T12:28:14;32.70;;;18.52;;
63089;SDS011;49174;43.198;27.824;2022-12-18T12:34:19;26.92;;;16.73;;
63089;SDS011;49174;43.198;27.824;2022-12-18T12:36:27;32.72;;;18.02;;
63089;SDS011;49174;43.198;27.824;2022-12-18T12:38:55;32.30;;;17.90;;
63089;SDS011;49174;43.198;27.824;2022-12-18T12:41:26;34.03;;;18.13;;
63089;SDS011;49174;43.198;27.824;2022-12-18T12:44:16;27.88;;;16.20;;
63089;SDS011;49174;43.198;27.824;2022-12-18T12:46:54;25.60;;;14.15;;
63089;SDS011;49174;43.198;27.824;2022-12-18T12:49:24;20.85;;;13.32;;
63089;SDS011;49174;43.198;27.824;2022-12-18T12:51:58;21.02;;;13.70;;
63089;SDS011;49174;43.198;27.824;2022-12-18T12:54:29;31.77;;;15.00;;
63089;SDS011;49174;43.198;27.824;2022-12-18T12:59:47;29.60;;;17.10;;
63089;SDS011;49174;43.198;27.824;2022-12-18T13:05:26;27.10;;;16.17;;
63089;SDS011;49174;43.198;27.824;2022-12-18T13:07:59;25.15;;;15.88;;
63089;SDS011;49174;43.198;27.824;2022-12-18T13:10:33;28.52;;;16.33;;
63089;SDS011;49174;43.198;27.824;2022-12-18T13:15:45;18.52;;;11.13;;
63089;SDS011;49174;43.198;27.824;2022-12-18T13:25:48;11.93;;;6.78;;
63089;SDS011;49174;43.198;27.824;2022-12-18T13:31:01;10.32;;;6.38;;
63089;SDS011;49174;43.198;27.824;2022-12-18T13:36:01;11.30;;;4.85;;
63089;SDS011;49174;43.198;27.824;2022-12-18T13:39:09;9.45;;;4.45;;
63089;SDS011;49174;43.198;27.824;2022-12-18T13:41:39;8.77;;;4.72;;
63089;SDS011;49174;43.198;27.824;2022-12-18T13:47:00;8.18;;;4.85;;
63089;SDS011;49174;43.198;27.824;2022-12-18T13:49:41;7.60;;;4.07;;
63089;SDS011;49174;43.198;27.824;2022-12-18T13:52:51;8.05;;;4.35;;
63089;SDS011;49174;43.198;27.824;2022-12-18T13:55:04;8.25;;;4.40;;
63089;SDS011;49174;43.198;27.824;2022-12-18T13:57:34;6.53;;;4.18;;
63089;SDS011;49174;43.198;27.824;2022-12-18T14:02:47;8.57;;;4.38;;
63089;SDS011;49174;43.198;27.824;2022-12-18T14:05:23;7.80;;;4.63;;
63089;SDS011;49174;43.198;27.824;2022-12-18T14:07:53;7.13;;;4.53;;
63089;SDS011;49174;43.198;27.824;2022-12-18T14:10:19;7.82;;;4.45;;
63089;SDS011;49174;43.198;27.824;2022-12-18T14:12:47;8.60;;;4.88;;
63089;SDS011;49174;43.198;27.824;2022-12-18T14:20:45;8.20;;;4.88;;
63089;SDS011;49174;43.198;27.824;2022-12-18T14:25:53;9.95;;;4.55;;
63089;SDS011;49174;43.198;27.824;2022-12-18T14:28:19;7.93;;;4.60;;
63089;SDS011;49174;43.198;27.824;2022-12-18T14:30:47;8.27;;;5.13;;
63089;SDS011;49174;43.198;27.824;2022-12-18T14:35:43;10.38;;;4.82;;
63089;SDS011;49174;43.198;27.824;2022-12-18T14:59:49;38.25;;;27.30;;
63089;SDS011;49174;43.198;27.824;2022-12-18T15:10:20;12.68;;;8.90;;
63089;SDS011;49174;43.198;27.824;2022-12-18T15:20:38;9.70;;;6.75;;
63089;SDS011;49174;43.198;27.824;2022-12-18T15:31:40;10.38;;;5.85;;
63089;SDS011;49174;43.198;27.824;2022-12-18T15:34:10;9.48;;;5.13;;
63089;SDS011;49174;43.198;27.824;2022-12-18T15:36:39;25.23;;;11.40;;
63089;SDS011;49174;43.198;27.824;2022-12-18T15:39:05;24.42;;;11.95;;
63089;SDS011;49174;43.198;27.824;2022-12-18T15:41:34;49.03;;;20.98;;
63089;SDS011;49174;43.198;27.824;2022-12-18T15:44:01;25.85;;;13.15;;
63089;SDS011;49174;43.198;27.824;2022-12-18T15:46:27;27.50;;;11.88;;
63089;SDS011;49174;43.198;27.824;2022-12-18T15:48:54;29.92;;;13.85;;
63089;SDS011;49174;43.198;27.824;2022-12-18T15:53:55;12.90;;;6.63;;
63089;SDS011;49174;43.198;27.824;2022-12-18T16:05:37;16.50;;;7.88;;
63089;SDS011;49174;43.198;27.824;2022-12-18T16:08:03;12.68;;;6.03;;
63089;SDS011;49174;43.198;27.824;2022-12-18T16:10:28;13.88;;;6.55;;
63089;SDS011;49174;43.198;27.824;2022-12-18T16:12:55;12.82;;;6.75;;
63089;SDS011;49174;43.198;27.824;2022-12-18T16:20:59;18.73;;;9.63;;
63089;SDS011;49174;43.198;27.824;2022-12-18T16:23:24;11.20;;;5.53;;
63089;SDS011;49174;43.198;27.824;2022-12-18T16:25:50;10.07;;;5.40;;
63089;SDS011;49174;43.198;27.824;2022-12-18T16:28:17;7.93;;;5.20;;
63089;SDS011;49174;43.198;27.824;2022-12-18T16:30:42;12.95;;;6.63;;
63089;SDS011;49174;43.198;27.824;2022-12-18T16:33:08;14.43;;;7.20;;
63089;SDS011;49174;43.198;27.824;2022-12-18T16:35:35;15.25;;;8.77;;
63089;SDS011;49174;43.198;27.824;2022-12-18T16:38:02;12.50;;;7.00;;
63089;SDS011;49174;43.198;27.824;2022-12-18T16:40:27;12.75;;;8.15;;
63089;SDS011;49174;43.198;27.824;2022-12-18T16:42:56;12.68;;;7.55;;
63089;SDS011;49174;43.198;27.824;2022-12-18T16:45:22;12.98;;;8.45;;
63089;SDS011;49174;43.198;27.824;2022-12-18T16:47:47;11.23;;;7.50;;
63089;SDS011;49174;43.198;27.824;2022-12-18T16:50:13;12.18;;;8.05;;
63089;SDS011;49174;43.198;27.824;2022-12-18T16:52:40;12.43;;;6.82;;
63089;SDS011;49174;43.198;27.824;2022-12-18T16:55:06;11.80;;;7.07;;
63089;SDS011;49174;43.198;27.824;2022-12-18T17:00:14;11.43;;;7.22;;
63089;SDS011;49174;43.198;27.824;2022-12-18T17:02:40;10.77;;;6.20;;
63089;SDS011;49174;43.198;27.824;2022-12-18T17:05:05;7.80;;;5.05;;
63089;SDS011;49174;43.198;27.824;2022-12-18T17:07:31;11.80;;;8.10;;
63089;SDS011;49174;43.198;27.824;2022-12-18T17:09:57;10.90;;;6.63;;
63089;SDS011;49174;43.198;27.824;2022-12-18T17:15:06;9.60;;;5.47;;
63089;SDS011;49174;43.198;27.824;2022-12-18T17:17:32;8.27;;;5.45;;
63089;SDS011;49174;43.198;27.824;2022-12-18T17:19:58;9.60;;;6.32;;
63089;SDS011;49174;43.198;27.824;2022-12-18T17:22:23;12.20;;;6.55;;
63089;SDS011;49174;43.198;27.824;2022-12-18T17:24:49;9.73;;;5.55;;
63089;SDS011;49174;43.198;27.824;2022-12-18T17:27:15;8.27;;;5.63;;
63089;SDS011;49174;43.198;27.824;2022-12-18T17:40:47;9.90;;;6.57;;
63089;SDS011;49174;43.198;27.824;2022-12-18T17:48:46;13.32;;;7.53;;
63089;SDS011;49174;43.198;27.824;2022-12-18T17:51:13;10.82;;;6.30;;
63089;SDS011;49174;43.198;27.824;2022-12-18T17:56:16;11.82;;;6.72;;
63089;SDS011;49174;43.198;27.824;2022-12-18T17:58:43;11.35;;;6.88;;
63089;SDS011;49174;43.198;27.824;2022-12-18T18:06:56;11.20;;;6.55;;
63089;SDS011;49174;43.198;27.824;2022-12-18T18:14:47;11.65;;;6.85;;
63089;SDS011;49174;43.198;27.824;2022-12-18T18:17:12;10.38;;;6.00;;
63089;SDS011;49174;43.198;27.824;2022-12-18T18:22:18;24.15;;;12.95;;
63089;SDS011;49174;43.198;27.824;2022-12-18T18:24:44;12.73;;;8.70;;
63089;SDS011;49174;43.198;27.824;2022-12-18T18:27:10;17.65;;;11.32;;
63089;SDS011;49174;43.198;27.824;2022-12-18T18:29:36;16.55;;;10.60;;
63089;SDS011;49174;43.198;27.824;2022-12-18T18:32:02;22.08;;;14.82;;
63089;SDS011;49174;43.198;27.824;2022-12-18T18:34:29;19.15;;;12.13;;
63089;SDS011;49174;43.198;27.824;2022-12-18T18:40:02;18.60;;;10.93;;
63089;SDS011;49174;43.198;27.824;2022-12-18T18:42:28;25.25;;;16.77;;
63089;SDS011;49174;43.198;27.824;2022-12-18T18:44:54;15.82;;;10.75;;
63089;SDS011;49174;43.198;27.824;2022-12-18T18:47:20;14.63;;;9.48;;
63089;SDS011;49174;43.198;27.824;2022-12-18T18:49:46;16.20;;;9.70;;
63089;SDS011;49174;43.198;27.824;2022-12-18T18:54:48;21.27;;;14.63;;
63089;SDS011;49174;43.198;27.824;2022-12-18T18:57:14;14.55;;;9.80;;
63089;SDS011;49174;43.198;27.824;2022-12-18T18:59:40;16.17;;;10.70;;
63089;SDS011;49174;43.198;27.824;2022-12-18T19:02:08;23.40;;;15.23;;
63089;SDS011;49174;43.198;27.824;2022-12-18T19:04:36;18.98;;;11.88;;
63089;SDS011;49174;43.198;27.824;2022-12-18T19:07:02;17.00;;;12.80;;
63089;SDS011;49174;43.198;27.824;2022-12-18T19:09:28;17.17;;;11.77;;
63089;SDS011;49174;43.198;27.824;2022-12-18T19:11:53;16.83;;;10.50;;
63089;SDS011;49174;43.198;27.824;2022-12-18T19:14:38;21.38;;;12.30;;
63089;SDS011;49174;43.198;27.824;2022-12-18T19:17:04;14.98;;;9.63;;
63089;SDS011;49174;43.198;27.824;2022-12-18T19:19:29;14.15;;;9.57;;
63089;SDS011;49174;43.198;27.824;2022-12-18T19:21:55;15.45;;;10.63;;
63089;SDS011;49174;43.198;27.824;2022-12-18T19:24:21;15.93;;;10.25;;
63089;SDS011;49174;43.198;27.824;2022-12-18T19:26:47;17.42;;;10.82;;
63089;SDS011;49174;43.198;27.824;2022-12-18T19:31:55;43.95;;;23.35;;
63089;SDS011;49174;43.198;27.824;2022-12-18T19:34:20;25.23;;;15.95;;
63089;SDS011;49174;43.198;27.824;2022-12-18T19:36:46;29.08;;;17.52;;
63089;SDS011;49174;43.198;27.824;2022-12-18T19:39:15;21.08;;;13.02;;
63089;SDS011;49174;43.198;27.824;2022-12-18T19:41:43;23.85;;;15.15;;
63089;SDS011;49174;43.198;27.824;2022-12-18T19:44:13;21.08;;;12.98;;
63089;SDS011;49174;43.198;27.824;2022-12-18T19:46:40;17.35;;;11.98;;
63089;SDS011;49174;43.198;27.824;2022-12-18T19:49:07;17.70;;;12.00;;
63089;SDS011;49174;43.198;27.824;2022-12-18T19:51:33;18.83;;;10.63;;
63089;SDS011;49174;43.198;27.824;2022-12-18T19:53:59;17.67;;;11.77;;
63089;SDS011;49174;43.198;27.824;2022-12-18T19:56:27;18.30;;;11.82;;
63089;SDS011;49174;43.198;27.824;2022-12-18T19:58:55;16.42;;;10.77;;
63089;SDS011;49174;43.198;27.824;2022-12-18T20:01:21;17.40;;;11.30;;
63089;SDS011;49174;43.198;27.824;2022-12-18T20:03:49;18.10;;;11.27;;
63089;SDS011;49174;43.198;27.824;2022-12-18T20:06:29;16.88;;;11.00;;
63089;SDS011;49174;43.198;27.824;2022-12-18T20:08:57;20.90;;;11.82;;
63089;SDS011;49174;43.198;27.824;2022-12-18T20:11:25;21.30;;;12.27;;
63089;SDS011;49174;43.198;27.824;2022-12-18T20:13:50;19.48;;;10.82;;
63089;SDS011;49174;43.198;27.824;2022-12-18T20:16:16;16.73;;;11.23;;
63089;SDS011;49174;43.198;27.824;2022-12-18T20:18:42;15.27;;;10.75;;
63089;SDS011;49174;43.198;27.824;2022-12-18T20:21:07;17.38;;;11.07;;
63089;SDS011;49174;43.198;27.824;2022-12-18T20:23:36;16.50;;;11.00;;
63089;SDS011;49174;43.198;27.824;2022-12-18T20:26:22;16.85;;;10.57;;
63089;SDS011;49174;43.198;27.824;2022-12-18T20:43:50;17.63;;;11.38;;
63089;SDS011;49174;43.198;27.824;2022-12-18T20:46:16;20.90;;;12.27;;
63089;SDS011;49174;43.198;27.824;2022-12-18T20:48:42;17.33;;;11.48;;
63089;SDS011;49174;43.198;27.824;2022-12-18T20:51:10;17.85;;;11.82;;
63089;SDS011;49174;43.198;27.824;2022-12-18T20:56:20;16.73;;;11.43;;
63089;SDS011;49174;43.198;27.824;2022-12-18T20:58:47;18.08;;;11.25;;
63089;SDS011;49174;43.198;27.824;2022-12-18T21:01:15;15.93;;;10.00;;
63089;SDS011;49174;43.198;27.824;2022-12-18T21:03:43;18.33;;;11.88;;
63089;SDS011;49174;43.198;27.824;2022-12-18T21:06:12;17.88;;;10.88;;
63089;SDS011;49174;43.198;27.824;2022-12-18T21:08:39;18.30;;;11.82;;
63089;SDS011;49174;43.198;27.824;2022-12-18T21:14:00;19.02;;;11.13;;
63089;SDS011;49174;43.198;27.824;2022-12-18T21:16:27;19.52;;;11.52;;
63089;SDS011;49174;43.198;27.824;2022-12-18T21:18:53;18.33;;;11.20;;
63089;SDS011;49174;43.198;27.824;2022-12-18T21:21:18;20.02;;;12.48;;
63089;SDS011;49174;43.198;27.824;2022-12-18T21:23:44;17.25;;;10.70;;
63089;SDS011;49174;43.198;27.824;2022-12-18T21:26:14;23.40;;;13.48;;
63089;SDS011;49174;43.198;27.824;2022-12-18T21:28:42;40.47;;;22.50;;
63089;SDS011;49174;43.198;27.824;2022-12-18T21:31:08;21.02;;;11.82;;
63089;SDS011;49174;43.198;27.824;2022-12-18T21:33:42;20.40;;;12.18;;
63089;SDS011;49174;43.198;27.824;2022-12-18T21:47:03;18.70;;;11.50;;
63089;SDS011;49174;43.198;27.824;2022-12-18T21:49:30;17.08;;;10.55;;
63089;SDS011;49174;43.198;27.824;2022-12-18T21:51:56;18.98;;;11.13;;
63089;SDS011;49174;43.198;27.824;2022-12-18T21:54:23;17.00;;;10.45;;
63089;SDS011;49174;43.198;27.824;2022-12-18T21:56:52;20.02;;;11.73;;
63089;SDS011;49174;43.198;27.824;2022-12-18T22:02:08;16.13;;;11.52;;
63089;SDS011;49174;43.198;27.824;2022-12-18T22:04:38;20.50;;;11.52;;
63089;SDS011;49174;43.198;27.824;2022-12-18T22:07:05;20.77;;;11.45;;
63089;SDS011;49174;43.198;27.824;2022-12-18T22:09:30;16.35;;;10.35;;
63089;SDS011;49174;43.198;27.824;2022-12-18T22:11:57;15.40;;;10.63;;
63089;SDS011;49174;43.198;27.824;2022-12-18T22:14:23;17.98;;;11.48;;
63089;SDS011;49174;43.198;27.824;2022-12-18T22:16:49;17.70;;;10.98;;
63089;SDS011;49174;43.198;27.824;2022-12-18T22:19:15;16.90;;;10.45;;
63089;SDS011;49174;43.198;27.824;2022-12-18T22:21:42;21.33;;;12.40;;
63089;SDS011;49174;43.198;27.824;2022-12-18T22:24:20;19.70;;;11.65;;
63089;SDS011;49174;43.198;27.824;2022-12-18T22:26:47;16.52;;;10.45;;
63089;SDS011;49174;43.198;27.824;2022-12-18T22:29:15;19.80;;;11.38;;
63089;SDS011;49174;43.198;27.824;2022-12-18T22:32:00;17.80;;;10.80;;
63089;SDS011;49174;43.198;27.824;2022-12-18T22:34:27;16.30;;;10.15;;
63089;SDS011;49174;43.198;27.824;2022-12-18T22:36:52;17.98;;;10.65;;
63089;SDS011;49174;43.198;27.824;2022-12-18T22:39:19;19.33;;;10.73;;
63089;SDS011;49174;43.198;27.824;2022-12-18T22:41:49;17.15;;;10.95;;
63089;SDS011;49174;43.198;27.824;2022-12-18T22:44:15;20.20;;;12.02;;
63089;SDS011;49174;43.198;27.824;2022-12-18T22:46:45;15.00;;;9.98;;
63089;SDS011;49174;43.198;27.824;2022-12-18T22:51:42;18.42;;;10.85;;
63089;SDS011;49174;43.198;27.824;2022-12-18T22:54:10;16.65;;;10.90;;
63089;SDS011;49174;43.198;27.824;2022-12-18T22:56:36;20.23;;;11.70;;
63089;SDS011;49174;43.198;27.824;2022-12-18T22:59:02;18.70;;;11.25;;
63089;SDS011;49174;43.198;27.824;2022-12-18T23:01:28;18.65;;;12.05;;
63089;SDS011;49174;43.198;27.824;2022-12-18T23:03:55;20.55;;;12.27;;
63089;SDS011;49174;43.198;27.824;2022-12-18T23:06:22;20.00;;;11.70;;
63089;SDS011;49174;43.198;27.824;2022-12-18T23:08:48;20.05;;;12.15;;
63089;SDS011;49174;43.198;27.824;2022-12-18T23:11:17;21.58;;;12.40;;
63089;SDS011;49174;43.198;27.824;2022-12-18T23:13:43;21.42;;;12.75;;
63089;SDS011;49174;43.198;27.824;2022-12-18T23:16:13;24.73;;;13.38;;
63089;SDS011;49174;43.198;27.824;2022-12-18T23:18:40;19.60;;;12.95;;
63089;SDS011;49174;43.198;27.824;2022-12-18T23:21:11;24.20;;;13.77;;
63089;SDS011;49174;43.198;27.824;2022-12-18T23:23:37;23.88;;;13.75;;
63089;SDS011;49174;43.198;27.824;2022-12-18T23:26:03;23.90;;;13.80;;
63089;SDS011;49174;43.198;27.824;2022-12-18T23:28:31;22.27;;;13.20;;
63089;SDS011;49174;43.198;27.824;2022-12-18T23:31:04;22.98;;;12.68;;
63089;SDS011;49174;43.198;27.824;2022-12-18T23:33:31;26.08;;;14.02;;
63089;SDS011;49174;43.198;27.824;2022-12-18T23:36:00;19.50;;;12.32;;
63089;SDS011;49174;43.198;27.824;2022-12-18T23:38:26;23.40;;;13.48;;
63089;SDS011;49174;43.198;27.824;2022-12-18T23:40:52;25.15;;;12.98;;
63089;SDS011;49174;43.198;27.824;2022-12-18T23:43:17;25.27;;;14.40;;
63089;SDS011;49174;43.198;27.824;2022-12-18T23:45:43;23.05;;;13.15;;
63089;SDS011;49174;43.198;27.824;2022-12-18T23:48:09;23.88;;;14.23;;
63089;SDS011;49174;43.198;27.824;2022-12-18T23:50:35;22.80;;;13.13;;